createdAt,value
2022-10-29T00:00:54.690Z,4.70
2022-10-29T00:03:22.277Z,4.28
2022-10-29T00:06:04.391Z,4.60
2022-10-29T00:08:33.993Z,4.43
2022-10-29T00:11:16.915Z,4.63
2022-10-29T00:13:44.492Z,4.75
2022-10-29T00:16:17.302Z,4.78
2022-10-29T00:18:44.785Z,4.57
2022-10-29T00:21:16.635Z,4.28
2022-10-29T00:26:10.762Z,4.38
2022-10-29T00:28:37.724Z,5.18
2022-10-29T00:31:11.519Z,4.68
2022-10-29T00:33:38.513Z,4.97
2022-10-29T00:36:17.738Z,5.47
2022-10-29T00:38:44.991Z,4.90
2022-10-29T00:41:16.601Z,5.00
2022-10-29T00:44:14.379Z,5.22
2022-10-29T00:46:44.761Z,4.82
2022-10-29T00:49:11.854Z,4.53
2022-10-29T00:51:38.787Z,4.90
2022-10-29T00:54:15.044Z,4.85
2022-10-29T00:56:56.959Z,4.70
2022-10-29T00:59:24.980Z,5.20
2022-10-29T01:01:52.000Z,4.60
2022-10-29T01:04:19.077Z,4.50
2022-10-29T01:06:46.918Z,5.03
2022-10-29T01:09:13.653Z,4.25
2022-10-29T01:12:07.329Z,5.70
2022-10-29T01:15:21.020Z,5.43
2022-10-29T01:18:21.123Z,4.50
2022-10-29T01:21:08.996Z,5.13
2022-10-29T01:24:28.176Z,4.93
2022-10-29T01:27:19.496Z,5.57
2022-10-29T01:30:07.783Z,5.57
2022-10-29T01:33:00.265Z,5.50
2022-10-29T01:35:40.682Z,4.57
2022-10-29T01:38:36.450Z,5.90
2022-10-29T01:41:22.264Z,5.22
2022-10-29T01:44:05.844Z,5.28
2022-10-29T01:46:46.325Z,4.93
2022-10-29T01:49:22.573Z,5.30
2022-10-29T01:51:49.889Z,4.97
2022-10-29T01:54:16.689Z,5.65
2022-10-29T01:56:43.378Z,5.90
2022-10-29T01:59:22.995Z,5.32
2022-10-29T02:02:25.407Z,5.40
2022-10-29T02:05:02.796Z,5.78
2022-10-29T02:07:41.365Z,5.60
2022-10-29T02:10:28.986Z,5.55
2022-10-29T02:12:57.678Z,5.85
2022-10-29T02:15:33.690Z,5.63
2022-10-29T02:18:03.053Z,5.40
2022-10-29T02:20:30.252Z,5.93
2022-10-29T02:22:57.177Z,6.15
2022-10-29T02:25:25.078Z,6.18
2022-10-29T02:27:51.850Z,6.22
2022-10-29T02:30:18.932Z,5.63
2022-10-29T02:32:45.622Z,6.32
2022-10-29T02:35:12.312Z,6.10
2022-10-29T02:37:39.025Z,5.70
2022-10-29T02:40:06.495Z,5.63
2022-10-29T02:42:33.179Z,5.63
2022-10-29T02:44:59.886Z,5.60
2022-10-29T02:47:27.348Z,6.03
2022-10-29T02:49:54.251Z,5.43
2022-10-29T02:52:20.980Z,6.13
2022-10-29T02:54:47.675Z,6.07
2022-10-29T02:57:14.380Z,5.78
2022-10-29T02:59:41.085Z,5.82
2022-10-29T03:02:07.915Z,5.68
2022-10-29T03:04:34.861Z,5.72
2022-10-29T03:07:02.487Z,5.90
2022-10-29T03:09:29.184Z,6.13
2022-10-29T03:11:55.870Z,6.35
2022-10-29T03:14:22.548Z,5.70
2022-10-29T03:16:49.246Z,6.22
2022-10-29T03:19:15.937Z,6.32
2022-10-29T03:21:42.635Z,7.18
2022-10-29T03:24:09.338Z,7.57
2022-10-29T03:26:36.015Z,6.93
2022-10-29T03:29:02.875Z,6.75
2022-10-29T03:31:29.559Z,6.28
2022-10-29T03:33:56.261Z,6.38
2022-10-29T03:36:23.052Z,5.68
2022-10-29T03:38:49.829Z,5.93
2022-10-29T03:41:16.523Z,6.80
2022-10-29T03:43:43.282Z,6.97
2022-10-29T03:46:10.013Z,6.72
2022-10-29T03:48:36.899Z,6.57
2022-10-29T03:51:06.297Z,6.40
2022-10-29T03:53:34.858Z,7.20
2022-10-29T03:56:02.467Z,6.70
2022-10-29T03:58:29.182Z,5.65
2022-10-29T04:01:05.320Z,6.20
2022-10-29T04:03:34.732Z,5.93
2022-10-29T04:06:08.108Z,6.78
2022-10-29T04:08:34.800Z,6.10
2022-10-29T04:11:01.481Z,5.32
2022-10-29T04:13:28.164Z,6.72
2022-10-29T04:15:56.291Z,7.53
2022-10-29T04:18:24.383Z,6.47
2022-10-29T04:29:11.943Z,6.18
2022-10-29T04:31:38.777Z,6.43
2022-10-29T04:34:06.219Z,6.28
2022-10-29T04:36:32.902Z,7.13
2022-10-29T04:38:59.597Z,6.45
2022-10-29T04:41:26.279Z,6.75
2022-10-29T04:43:52.974Z,6.53
2022-10-29T04:46:19.663Z,6.30
2022-10-29T04:48:46.457Z,6.55
2022-10-29T04:51:22.212Z,6.13
2022-10-29T04:53:49.261Z,5.95
2022-10-29T04:56:16.397Z,6.60
2022-10-29T04:58:43.197Z,6.80
2022-10-29T05:01:10.146Z,6.35
2022-10-29T05:03:37.011Z,5.97
2022-10-29T05:06:05.800Z,7.75
2022-10-29T05:08:32.931Z,6.47
2022-10-29T05:11:03.617Z,7.20
2022-10-29T05:13:30.608Z,6.78
2022-10-29T05:15:57.323Z,5.85
2022-10-29T05:18:24.173Z,6.40
2022-10-29T05:20:57.753Z,7.13
2022-10-29T05:23:24.844Z,5.85
2022-10-29T05:25:52.305Z,6.47
2022-10-29T05:28:22.014Z,7.03
2022-10-29T05:30:51.182Z,8.57
2022-10-29T05:33:20.828Z,6.32
2022-10-29T05:35:48.215Z,7.65
2022-10-29T05:38:15.846Z,7.10
2022-10-29T06:01:28.342Z,6.40
2022-10-29T06:03:55.063Z,6.18
2022-10-29T06:06:21.793Z,6.68
2022-10-29T06:08:48.530Z,6.82
2022-10-29T06:11:15.228Z,6.53
2022-10-29T06:13:41.916Z,6.13
2022-10-29T06:16:08.675Z,6.10
2022-10-29T06:18:35.372Z,6.70
2022-10-29T06:21:02.257Z,6.38
2022-10-29T06:23:29.579Z,6.05
2022-10-29T06:26:00.660Z,6.57
2022-10-29T06:28:33.450Z,5.90
2022-10-29T06:31:01.782Z,6.20
2022-10-29T06:33:28.560Z,6.03
2022-10-29T06:36:00.418Z,6.22
2022-10-29T06:40:53.949Z,5.75
2022-10-29T06:43:20.900Z,5.60
2022-10-29T06:45:52.419Z,6.53
2022-10-29T06:48:22.139Z,5.93
2022-10-29T06:50:50.625Z,5.55
2022-10-29T06:53:17.903Z,5.90
2022-10-29T06:55:44.769Z,5.45
2022-10-29T06:58:14.771Z,5.25
2022-10-29T07:00:42.410Z,5.07
2022-10-29T07:03:13.723Z,5.20
2022-10-29T07:05:40.433Z,4.63
2022-10-29T07:08:07.180Z,4.50
2022-10-29T07:10:34.435Z,4.30
2022-10-29T07:13:01.429Z,5.00
2022-10-29T07:15:30.838Z,4.10
2022-10-29T07:18:06.606Z,4.47
2022-10-29T07:20:40.368Z,4.90
2022-10-29T07:23:07.417Z,4.78
2022-10-29T07:25:36.693Z,5.43
2022-10-29T07:28:16.663Z,6.18
2022-10-29T07:30:44.406Z,6.47
2022-10-29T07:33:11.291Z,5.68
2022-10-29T07:35:38.323Z,6.22
2022-10-29T07:38:10.891Z,5.43
2022-10-29T07:40:40.408Z,5.03
2022-10-29T07:43:07.461Z,5.63
2022-10-29T07:45:34.355Z,4.28
2022-10-29T07:48:07.750Z,5.15
2022-10-29T07:50:35.209Z,4.75
2022-10-29T07:53:03.417Z,4.63
2022-10-29T08:00:33.426Z,4.45
2022-10-29T08:03:00.187Z,4.15
2022-10-29T08:05:29.356Z,4.78
2022-10-29T08:07:57.286Z,4.05
2022-10-29T08:10:25.025Z,4.65
2022-10-29T08:12:58.090Z,4.22
2022-10-29T08:15:26.687Z,4.55
2022-10-29T08:17:53.545Z,3.83
2022-10-29T08:20:22.217Z,4.93
2022-10-29T08:22:48.933Z,4.90
2022-10-29T08:25:16.688Z,4.28
2022-10-29T08:27:43.928Z,4.78
2022-10-29T08:30:13.927Z,4.25
2022-10-29T08:32:46.582Z,3.90
2022-10-29T08:35:14.441Z,4.20
2022-10-29T08:37:45.443Z,4.85
2022-10-29T08:40:50.583Z,4.10
2022-10-29T08:44:20.606Z,4.10
2022-10-29T08:46:55.339Z,4.22
2022-10-29T08:49:36.093Z,3.78
2022-10-29T08:52:13.915Z,3.72
2022-10-29T08:54:44.838Z,3.40
2022-10-29T08:57:16.331Z,5.63
2022-10-29T08:59:54.587Z,5.68
2022-10-29T09:02:21.398Z,5.60
2022-10-29T09:04:48.216Z,4.18
2022-10-29T09:07:56.131Z,3.85
2022-10-29T09:10:44.470Z,4.20
2022-10-29T09:13:33.114Z,3.88
2022-10-29T09:16:32.522Z,4.22
2022-10-29T09:19:19.174Z,3.20
2022-10-29T09:22:11.759Z,3.13
2022-10-29T09:24:48.866Z,3.70
2022-10-29T09:27:26.280Z,4.03
2022-10-29T09:30:14.846Z,3.40
2022-10-29T09:32:53.389Z,3.33
2022-10-29T09:35:22.176Z,3.38
2022-10-29T09:37:55.072Z,3.58
2022-10-29T09:40:34.199Z,4.00
2022-10-29T09:43:17.949Z,3.13
2022-10-29T09:46:01.688Z,2.90
2022-10-29T09:48:45.749Z,3.47
2022-10-29T09:51:31.919Z,3.72
2022-10-29T09:53:58.610Z,3.38
2022-10-29T09:56:25.331Z,3.20
2022-10-29T09:59:10.016Z,3.22
2022-10-29T10:01:36.833Z,3.90
2022-10-29T10:04:19.399Z,2.95
2022-10-29T10:07:08.794Z,3.50
2022-10-29T10:09:56.324Z,4.03
2022-10-29T10:12:29.766Z,3.45
2022-10-29T10:15:16.403Z,3.38
2022-10-29T10:17:58.261Z,4.03
2022-10-29T10:20:40.416Z,3.65
2022-10-29T10:23:28.403Z,3.88
2022-10-29T10:26:03.698Z,4.15
2022-10-29T10:28:34.556Z,3.60
2022-10-29T10:31:13.382Z,3.80
2022-10-29T10:33:55.900Z,4.20
2022-10-29T10:36:25.839Z,3.60
2022-10-29T10:38:55.870Z,3.42
2022-10-29T10:41:28.365Z,3.72
2022-10-29T10:44:00.417Z,3.70
2022-10-29T10:46:37.199Z,4.03
2022-10-29T10:49:23.967Z,3.80
2022-10-29T10:51:56.340Z,3.30
2022-10-29T10:54:36.549Z,3.55
2022-10-29T10:57:25.746Z,3.53
2022-10-29T11:00:06.455Z,3.67
2022-10-29T11:03:03.307Z,3.30
2022-10-29T11:05:59.496Z,3.35
2022-10-29T11:08:46.614Z,3.70
2022-10-29T11:11:35.693Z,3.20
2022-10-29T11:14:12.310Z,3.35
2022-10-29T11:16:55.958Z,4.00
2022-10-29T11:19:40.910Z,3.50
2022-10-29T11:22:49.746Z,3.65
2022-10-29T11:25:40.300Z,3.92
2022-10-29T11:28:26.349Z,3.60
2022-10-29T11:31:47.406Z,3.83
2022-10-29T11:34:45.482Z,3.47
2022-10-29T11:37:33.946Z,3.65
2022-10-29T11:40:11.603Z,4.00
2022-10-29T11:42:39.235Z,3.30
2022-10-29T11:45:11.891Z,3.80
2022-10-29T11:47:59.219Z,3.08
2022-10-29T11:50:53.124Z,3.05
2022-10-29T11:53:56.871Z,3.78
2022-10-29T11:56:40.848Z,3.60
2022-10-29T11:59:41.907Z,3.25
2022-10-29T12:02:22.066Z,3.08
2022-10-29T12:05:00.415Z,3.50
2022-10-29T12:07:58.355Z,3.33
2022-10-29T12:10:46.388Z,3.45
2022-10-29T12:13:29.271Z,3.75
2022-10-29T12:16:06.506Z,3.20
2022-10-29T12:18:50.617Z,3.10
2022-10-29T12:21:43.236Z,3.05
2022-10-29T12:24:29.397Z,3.33
2022-10-29T12:27:15.808Z,3.47
2022-10-29T12:29:51.996Z,3.55
2022-10-29T12:32:59.840Z,4.15
2022-10-29T12:35:29.988Z,3.40
2022-10-29T12:38:30.575Z,3.80
2022-10-29T12:41:19.487Z,3.35
2022-10-29T12:43:48.442Z,3.00
2022-10-29T12:46:36.029Z,3.17
2022-10-29T12:49:05.424Z,3.50
2022-10-29T12:51:59.701Z,3.45
2022-10-29T12:54:45.763Z,3.55
2022-10-29T12:57:15.474Z,3.13
2022-10-29T12:59:44.099Z,3.67
2022-10-29T13:02:51.062Z,3.92
2022-10-29T13:05:42.862Z,3.60
2022-10-29T13:08:19.033Z,3.35
2022-10-29T13:10:55.153Z,3.70
2022-10-29T13:13:37.507Z,3.47
2022-10-29T13:16:27.272Z,3.72
2022-10-29T13:19:15.591Z,3.88
2022-10-29T13:21:57.259Z,3.55
2022-10-29T13:24:26.014Z,3.42
2022-10-29T13:27:00.335Z,3.38
2022-10-29T13:29:48.385Z,3.15
2022-10-29T13:32:36.729Z,3.42
2022-10-29T13:35:26.769Z,3.55
2022-10-29T13:38:11.807Z,3.70
2022-10-29T13:40:41.325Z,3.10
2022-10-29T13:43:07.939Z,3.30
2022-10-29T13:45:39.582Z,2.80
2022-10-29T13:48:14.446Z,3.60
2022-10-29T13:50:42.810Z,3.35
2022-10-29T13:53:13.784Z,3.28
2022-10-29T13:55:44.398Z,3.47
2022-10-29T13:58:32.513Z,4.10
2022-10-29T14:01:01.342Z,3.70
2022-10-29T14:04:00.291Z,3.65
2022-10-29T14:06:34.600Z,3.72
2022-10-29T14:09:25.515Z,4.10
2022-10-29T14:12:03.143Z,3.83
2022-10-29T14:14:47.500Z,4.05
2022-10-29T14:17:17.220Z,3.90
2022-10-29T14:19:49.890Z,4.47
2022-10-29T14:22:39.507Z,4.03
2022-10-29T14:25:24.555Z,3.22
2022-10-29T14:28:18.936Z,3.90
2022-10-29T14:30:48.535Z,3.88
2022-10-29T14:33:25.814Z,3.65
2022-10-29T14:35:58.891Z,3.70
2022-10-29T14:38:41.982Z,4.13
2022-10-29T14:41:10.289Z,3.40
2022-10-29T14:43:37.800Z,3.38
2022-10-29T14:46:21.640Z,3.67
2022-10-29T14:48:57.142Z,3.60
2022-10-29T14:51:25.018Z,3.38
2022-10-29T14:54:01.976Z,3.80
2022-10-29T14:56:38.500Z,3.03
2022-10-29T14:59:17.286Z,3.25
2022-10-29T15:01:57.124Z,4.10
2022-10-29T15:04:30.764Z,3.75
2022-10-29T15:07:36.641Z,4.57
2022-10-29T15:10:09.141Z,3.78
2022-10-29T15:12:39.264Z,3.53
2022-10-29T15:15:21.558Z,3.60
2022-10-29T15:17:56.128Z,4.30
2022-10-29T15:20:35.689Z,3.63
2022-10-29T15:23:02.969Z,4.03
2022-10-29T15:25:37.093Z,3.85
2022-10-29T15:28:09.082Z,3.85
2022-10-29T15:30:38.115Z,4.72
2022-10-29T15:33:17.927Z,4.70
2022-10-29T15:36:14.875Z,4.72
2022-10-29T15:38:52.130Z,4.80
2022-10-29T15:41:47.788Z,4.35
2022-10-29T15:44:38.400Z,4.40
2022-10-29T15:47:28.200Z,4.40
2022-10-29T15:49:55.581Z,5.18
2022-10-29T15:52:33.235Z,5.45
2022-10-29T15:55:01.436Z,6.20
2022-10-29T15:57:28.224Z,5.28
2022-10-29T15:59:57.209Z,5.65
2022-10-29T16:02:26.228Z,5.68
2022-10-29T16:04:53.026Z,5.50
2022-10-29T16:07:19.796Z,5.30
2022-10-29T16:09:52.710Z,4.45
2022-10-29T16:12:19.798Z,4.97
2022-10-29T16:14:46.514Z,5.47
2022-10-29T16:17:19.734Z,5.20
2022-10-29T16:19:47.020Z,4.97
2022-10-29T16:22:26.165Z,5.00
2022-10-29T16:24:52.876Z,5.10
2022-10-29T16:27:19.595Z,4.90
2022-10-29T16:29:52.281Z,5.22
2022-10-29T16:32:23.373Z,5.30
2022-10-29T16:34:50.475Z,5.18
2022-10-29T16:37:19.424Z,4.85
2022-10-29T16:39:46.197Z,5.18
2022-10-29T16:42:35.064Z,7.72
2022-10-29T16:45:02.688Z,4.97
2022-10-29T16:47:29.408Z,4.75
2022-10-29T16:49:56.121Z,4.78
2022-10-29T16:52:25.271Z,8.45
2022-10-29T16:54:53.125Z,6.40
2022-10-29T16:57:19.841Z,6.22
2022-10-29T16:59:46.535Z,6.35
2022-10-29T17:02:13.284Z,5.15
2022-10-29T17:04:40.107Z,4.63
2022-10-29T17:07:06.995Z,4.93
2022-10-29T17:09:36.819Z,4.20
2022-10-29T17:12:04.092Z,4.55
2022-10-29T17:14:30.883Z,4.72
2022-10-29T17:16:57.695Z,4.65
2022-10-29T17:19:24.869Z,4.82
2022-10-29T17:21:51.794Z,4.47
2022-10-29T17:24:18.560Z,4.38
2022-10-29T17:26:45.296Z,4.40
2022-10-29T17:29:12.016Z,4.68
2022-10-29T17:31:38.729Z,4.60
2022-10-29T17:34:05.458Z,4.20
2022-10-29T17:36:32.169Z,5.13
2022-10-29T17:38:58.941Z,4.22
2022-10-29T17:41:25.699Z,4.82
2022-10-29T17:43:52.424Z,5.38
2022-10-29T17:46:19.187Z,4.28
2022-10-29T17:48:45.922Z,3.88
2022-10-29T17:51:12.626Z,4.25
2022-10-29T17:53:39.346Z,4.95
2022-10-29T17:56:06.654Z,4.32
2022-10-29T17:58:33.430Z,4.93
2022-10-29T18:01:06.520Z,4.38
2022-10-29T18:03:34.070Z,3.80
2022-10-29T18:06:02.412Z,4.60
2022-10-29T18:08:30.129Z,3.72
2022-10-29T18:11:16.837Z,4.65
2022-10-29T18:13:44.990Z,4.03
2022-10-29T18:16:16.059Z,4.20
2022-10-29T18:18:54.697Z,4.50
2022-10-29T18:21:27.883Z,3.35
2022-10-29T18:23:54.630Z,4.22
2022-10-29T18:26:27.261Z,3.80
2022-10-29T18:28:55.602Z,4.38
2022-10-29T18:31:27.483Z,5.07
2022-10-29T18:33:55.498Z,4.35
2022-10-29T18:36:22.282Z,4.80
2022-10-29T18:39:07.734Z,4.53
2022-10-29T18:41:35.448Z,4.38
2022-10-29T18:44:02.658Z,4.32
2022-10-29T18:46:29.381Z,5.05
2022-10-29T18:48:56.185Z,4.18
2022-10-29T18:51:30.416Z,3.72
2022-10-29T18:53:58.614Z,4.03
2022-10-29T18:56:27.393Z,3.97
2022-10-29T18:58:58.083Z,4.40
2022-10-29T19:01:30.191Z,3.72
2022-10-29T19:04:00.362Z,3.67
2022-10-29T19:06:31.352Z,4.20
2022-10-29T19:09:01.697Z,4.13
2022-10-29T19:11:29.196Z,3.70
2022-10-29T19:14:01.905Z,4.00
2022-10-29T19:16:30.746Z,4.75
2022-10-29T19:21:35.430Z,4.00
2022-10-29T19:24:03.304Z,4.38
2022-10-29T19:26:33.448Z,4.05
2022-10-29T19:29:03.583Z,4.28
2022-10-29T19:31:32.263Z,4.38
2022-10-29T19:34:02.412Z,4.22
2022-10-29T19:36:30.389Z,5.22
2022-10-29T19:38:57.992Z,4.22
2022-10-29T19:41:26.232Z,4.35
2022-10-29T19:43:53.114Z,4.28
2022-10-29T19:46:24.173Z,3.85
2022-10-29T19:48:54.088Z,4.03
2022-10-29T19:51:22.293Z,4.43
2022-10-29T19:53:51.284Z,3.70
2022-10-29T19:56:20.280Z,4.40
2022-10-29T19:58:47.029Z,4.18
2022-10-29T20:01:16.623Z,4.47
2022-10-29T20:03:44.045Z,4.25
2022-10-29T20:06:11.310Z,4.32
2022-10-29T20:08:38.392Z,4.28
2022-10-29T20:11:06.311Z,4.40
2022-10-29T20:13:33.458Z,4.35
2022-10-29T20:16:01.306Z,3.67
2022-10-29T20:18:28.025Z,3.50
2022-10-29T20:20:56.388Z,4.32
2022-10-29T20:23:25.486Z,4.53
2022-10-29T20:25:52.488Z,3.92
2022-10-29T20:28:19.324Z,4.38
2022-10-29T20:30:46.095Z,4.10
2022-10-29T20:33:12.929Z,5.03
2022-10-29T20:35:39.679Z,4.72
2022-10-29T20:38:06.512Z,4.57
2022-10-29T20:40:33.257Z,4.78
2022-10-29T20:43:00.043Z,4.00
2022-10-29T20:45:26.903Z,4.72
2022-10-29T20:47:53.614Z,4.70
2022-10-29T20:50:20.363Z,4.80
2022-10-29T20:52:48.983Z,5.05
2022-10-29T20:55:16.267Z,4.22
2022-10-29T20:57:43.024Z,4.93
2022-10-29T21:00:10.770Z,4.65
2022-10-29T21:02:37.686Z,4.30
2022-10-29T21:05:04.884Z,4.70
2022-10-29T21:07:31.611Z,4.93
2022-10-29T21:09:58.314Z,4.43
2022-10-29T21:12:25.115Z,4.25
2022-10-29T21:14:51.877Z,3.92
2022-10-29T21:17:18.683Z,4.20
2022-10-29T21:19:45.391Z,3.80
2022-10-29T21:22:14.763Z,4.53
2022-10-29T21:24:44.601Z,4.65
2022-10-29T21:27:12.547Z,4.40
2022-10-29T21:29:39.335Z,4.25
2022-10-29T21:32:06.297Z,4.95
2022-10-29T21:34:33.161Z,4.70
2022-10-29T21:36:59.941Z,4.50
2022-10-29T21:39:27.520Z,4.60
2022-10-29T21:41:54.260Z,4.60
2022-10-29T21:44:21.259Z,4.53
2022-10-29T21:46:48.007Z,4.43
2022-10-29T21:49:14.710Z,4.55
2022-10-29T21:51:41.861Z,4.47
2022-10-29T21:54:08.563Z,4.93
2022-10-29T21:56:35.299Z,4.18
2022-10-29T21:59:02.074Z,4.32
2022-10-29T22:01:28.879Z,4.45
2022-10-29T22:03:55.673Z,4.32
2022-10-29T22:06:25.608Z,4.82
2022-10-29T22:08:55.976Z,4.72
2022-10-29T22:11:23.777Z,4.78
2022-10-29T22:13:51.842Z,4.50
2022-10-29T22:16:18.791Z,4.43
2022-10-29T22:18:46.213Z,4.20
2022-10-29T22:21:22.602Z,4.32
2022-10-29T22:23:55.662Z,4.78
2022-10-29T22:26:26.181Z,4.68
2022-10-29T22:28:53.167Z,4.63
2022-10-29T22:31:22.617Z,5.18
2022-10-29T22:33:49.623Z,4.28
2022-10-29T22:36:18.785Z,4.65
2022-10-29T22:38:45.931Z,4.63
2022-10-29T22:41:17.687Z,4.47
2022-10-29T22:43:44.755Z,4.80
2022-10-29T22:46:14.075Z,4.95
2022-10-29T22:48:41.412Z,4.82
2022-10-29T22:51:17.385Z,4.57
2022-10-29T22:53:45.284Z,3.67
2022-10-29T22:56:22.280Z,4.63
2022-10-29T22:58:49.375Z,4.88
2022-10-29T23:01:22.790Z,4.57
2022-10-29T23:03:50.361Z,4.85
2022-10-29T23:06:20.020Z,4.60
2022-10-29T23:08:47.704Z,4.25
2022-10-29T23:11:21.323Z,4.55
2022-10-29T23:14:06.705Z,4.53
2022-10-29T23:16:35.340Z,4.47
2022-10-29T23:19:04.505Z,4.80
2022-10-29T23:21:32.282Z,4.38
2022-10-29T23:23:59.284Z,4.22
2022-10-29T23:26:26.607Z,4.10
2022-10-29T23:28:53.606Z,4.50
2022-10-29T23:31:26.104Z,4.15
2022-10-29T23:33:55.565Z,4.15
2022-10-29T23:36:25.135Z,4.40
2022-10-29T23:39:00.413Z,4.25
2022-10-29T23:41:30.528Z,4.32
2022-10-29T23:43:58.162Z,4.32
2022-10-29T23:46:25.000Z,4.45
2022-10-29T23:48:51.744Z,4.25
2022-10-29T23:51:19.263Z,4.93
2022-10-29T23:53:46.037Z,3.97
2022-10-29T23:56:12.768Z,4.88
2022-10-29T23:58:39.454Z,4.38
